createdAt,value
2019-05-06T00:00:34.150Z,76.20
2019-05-06T00:03:11.188Z,76.00
2019-05-06T00:05:48.194Z,77.70
2019-05-06T00:08:20.306Z,76.20
2019-05-06T00:10:55.240Z,76.10
2019-05-06T00:13:34.300Z,76.80
2019-05-06T00:16:05.774Z,76.30
2019-05-06T00:18:40.352Z,76.20
2019-05-06T00:21:20.076Z,76.20
2019-05-06T00:23:57.955Z,76.00
2019-05-06T00:26:56.906Z,76.40
2019-05-06T00:29:35.168Z,76.20
2019-05-06T00:32:15.109Z,76.60
2019-05-06T00:34:55.056Z,77.80
2019-05-06T00:37:32.318Z,77.20
2019-05-06T00:40:26.905Z,78.70
2019-05-06T00:43:11.543Z,78.30
2019-05-06T00:45:54.429Z,78.10
2019-05-06T00:48:25.123Z,78.30
2019-05-06T00:50:58.902Z,78.10
2019-05-06T00:53:34.863Z,77.80
2019-05-06T00:56:11.530Z,77.90
2019-05-06T00:59:05.141Z,78.50
2019-05-06T01:01:45.051Z,81.40
2019-05-06T01:04:21.721Z,78.50
2019-05-06T01:06:54.514Z,78.50
2019-05-06T01:09:29.798Z,79.10
2019-05-06T01:12:03.841Z,79.20
2019-05-06T01:14:44.041Z,81.40
2019-05-06T01:17:20.216Z,79.20
2019-05-06T01:19:56.382Z,80.40
2019-05-06T01:22:27.488Z,82.20
2019-05-06T01:24:58.448Z,80.00
2019-05-06T01:27:37.549Z,80.60
2019-05-06T01:30:13.671Z,79.70
2019-05-06T01:32:54.375Z,82.00
2019-05-06T01:35:30.668Z,80.10
2019-05-06T01:38:33.999Z,79.60
2019-05-06T01:41:24.260Z,79.50
2019-05-06T01:43:56.311Z,80.00
2019-05-06T01:46:35.648Z,79.50
2019-05-06T01:49:15.602Z,79.60
2019-05-06T01:51:48.171Z,81.10
2019-05-06T01:54:28.660Z,82.10
2019-05-06T01:57:04.423Z,80.80
2019-05-06T01:59:47.816Z,80.60
2019-05-06T02:02:30.312Z,81.90
2019-05-06T02:05:06.998Z,80.80
2019-05-06T02:08:06.316Z,82.30
2019-05-06T02:10:45.181Z,81.40
2019-05-06T02:13:17.498Z,83.90
2019-05-06T02:15:50.694Z,82.70
2019-05-06T02:18:24.327Z,81.60
2019-05-06T02:21:08.547Z,81.90
2019-05-06T02:23:53.544Z,82.20
2019-05-06T02:26:26.399Z,80.70
2019-05-06T02:28:58.537Z,80.60
2019-05-06T02:31:50.391Z,81.20
2019-05-06T02:34:36.674Z,81.30
2019-05-06T02:37:25.532Z,81.50
2019-05-06T02:39:57.727Z,81.40
2019-05-06T02:42:28.353Z,82.10
2019-05-06T02:45:12.582Z,81.90
2019-05-06T02:47:53.709Z,83.50
2019-05-06T02:50:29.419Z,82.30
2019-05-06T02:53:15.287Z,83.30
2019-05-06T02:55:44.317Z,81.80
2019-05-06T02:58:19.729Z,81.90
2019-05-06T03:01:03.797Z,81.70
2019-05-06T03:03:39.662Z,81.20
2019-05-06T03:06:13.161Z,81.90
2019-05-06T03:08:48.496Z,82.10
2019-05-06T03:11:43.887Z,81.70
2019-05-06T03:14:23.403Z,81.60
2019-05-06T03:20:59.753Z,83.80
2019-05-06T03:23:43.741Z,82.50
2019-05-06T03:26:23.489Z,83.40
2019-05-06T03:28:57.919Z,85.00
2019-05-06T03:31:36.501Z,82.70
2019-05-06T03:34:35.861Z,82.60
2019-05-06T03:36:48.656Z,81.70
2019-05-06T03:39:27.185Z,82.10
2019-05-06T03:42:04.537Z,82.70
2019-05-06T03:44:38.104Z,83.40
2019-05-06T03:47:43.330Z,82.30
2019-05-06T03:50:14.868Z,82.40
2019-05-06T03:52:56.524Z,82.80
2019-05-06T03:55:38.562Z,84.60
2019-05-06T03:58:14.454Z,83.10
2019-05-06T04:00:53.017Z,82.30
2019-05-06T04:03:44.113Z,85.20
2019-05-06T04:06:04.412Z,83.70
2019-05-06T04:08:39.806Z,82.90
2019-05-06T04:11:17.722Z,82.60
2019-05-06T04:13:58.560Z,82.10
2019-05-06T04:16:53.251Z,82.20
2019-05-06T04:19:33.128Z,82.70
2019-05-06T04:22:33.085Z,82.60
2019-05-06T04:25:29.596Z,81.90
2019-05-06T04:28:14.964Z,82.30
2019-05-06T04:30:50.726Z,83.50
2019-05-06T04:33:23.878Z,82.30
2019-05-06T04:36:03.577Z,82.20
2019-05-06T04:38:43.398Z,83.40
2019-05-06T04:41:26.662Z,82.80
2019-05-06T04:44:02.716Z,84.30
2019-05-06T04:46:34.882Z,84.00
2019-05-06T04:49:14.869Z,82.40
2019-05-06T04:51:45.709Z,82.40
2019-05-06T04:54:16.866Z,82.30
2019-05-06T04:56:53.744Z,82.40
2019-05-06T04:59:32.606Z,83.70
2019-05-06T05:02:19.294Z,84.70
2019-05-06T05:05:05.963Z,83.10
2019-05-06T05:07:55.948Z,84.70
2019-05-06T05:10:53.059Z,82.50
2019-05-06T05:13:47.171Z,82.30
2019-05-06T05:16:38.198Z,82.40
2019-05-06T05:19:20.281Z,83.20
2019-05-06T05:22:06.959Z,82.90
2019-05-06T05:24:42.377Z,83.10
2019-05-06T05:27:16.397Z,81.90
2019-05-06T05:29:52.214Z,81.90
2019-05-06T05:32:34.880Z,82.10
2019-05-06T05:35:09.088Z,81.40
2019-05-06T05:37:50.074Z,81.60
2019-05-06T05:40:22.977Z,81.10
2019-05-06T05:43:59.744Z,81.10
2019-05-06T05:47:00.066Z,80.50
2019-05-06T05:50:02.992Z,81.20
2019-05-06T05:53:02.494Z,80.80
2019-05-06T05:55:49.378Z,80.30
2019-05-06T05:58:53.508Z,80.30
2019-05-06T06:01:29.154Z,80.30
2019-05-06T06:04:19.080Z,79.30
2019-05-06T06:07:24.739Z,79.90
2019-05-06T06:10:12.802Z,79.30
2019-05-06T06:12:47.357Z,78.80
2019-05-06T06:15:42.701Z,78.20
2019-05-06T06:18:33.380Z,77.20
2019-05-06T06:21:28.205Z,77.10
2019-05-06T06:24:15.798Z,78.50
2019-05-06T06:27:12.555Z,76.80
2019-05-06T06:30:02.428Z,75.70
2019-05-06T06:32:41.939Z,77.20
2019-05-06T06:35:57.157Z,75.40
2019-05-06T06:38:49.915Z,75.50
2019-05-06T06:41:39.181Z,74.70
2019-05-06T06:44:36.801Z,74.00
2019-05-06T06:47:12.418Z,74.50
2019-05-06T06:49:57.159Z,74.10
2019-05-06T06:52:54.897Z,74.60
2019-05-06T06:55:35.050Z,74.10
2019-05-06T06:58:22.852Z,74.80
2019-05-06T07:01:23.485Z,74.10
2019-05-06T07:04:10.621Z,75.80
2019-05-06T07:06:42.276Z,76.20
2019-05-06T07:09:52.574Z,75.70
2019-05-06T07:12:25.203Z,74.40
2019-05-06T07:15:25.872Z,73.90
2019-05-06T07:18:06.250Z,75.50
2019-05-06T07:21:13.853Z,74.10
2019-05-06T07:27:22.676Z,73.50
2019-05-06T07:30:26.089Z,72.40
2019-05-06T07:33:03.469Z,72.70
2019-05-06T07:35:53.293Z,73.00
2019-05-06T07:38:36.883Z,72.60
2019-05-06T07:41:45.790Z,71.90
2019-05-06T07:45:06.368Z,72.90
2019-05-06T07:51:12.432Z,73.90
2019-05-06T07:53:49.065Z,73.60
2019-05-06T07:56:24.327Z,72.70
2019-05-06T07:59:37.668Z,73.90
2019-05-06T08:02:34.613Z,72.80
2019-05-06T08:05:09.660Z,72.60
2019-05-06T08:07:46.001Z,71.10
2019-05-06T08:10:24.440Z,73.00
2019-05-06T08:16:49.391Z,71.70
2019-05-06T08:19:48.457Z,72.40
2019-05-06T08:22:25.510Z,74.70
2019-05-06T08:25:03.476Z,73.20
2019-05-06T08:27:37.516Z,72.30
2019-05-06T08:30:36.341Z,74.30
2019-05-06T08:34:02.617Z,76.10
2019-05-06T08:36:49.742Z,75.30
2019-05-06T08:39:28.930Z,72.80
2019-05-06T08:42:15.544Z,73.50
2019-05-06T08:44:53.023Z,72.80
2019-05-06T08:47:33.185Z,71.60
2019-05-06T08:50:32.345Z,72.80
2019-05-06T08:53:35.423Z,70.60
2019-05-06T08:56:47.233Z,71.80
2019-05-06T08:59:20.893Z,70.10
2019-05-06T09:02:05.900Z,70.00
2019-05-06T09:05:02.991Z,70.50
2019-05-06T09:07:38.104Z,69.90
2019-05-06T09:10:14.735Z,70.80
2019-05-06T09:12:48.134Z,69.50
2019-05-06T09:15:42.737Z,69.60
2019-05-06T09:18:35.952Z,70.10
2019-05-06T09:21:46.621Z,70.60
2019-05-06T09:24:28.437Z,69.20
2019-05-06T09:27:47.422Z,70.30
2019-05-06T09:30:58.889Z,69.80
2019-05-06T09:34:02.813Z,71.50
2019-05-06T09:37:26.121Z,70.70
2019-05-06T09:40:06.167Z,69.80
2019-05-06T09:43:06.280Z,70.10
2019-05-06T09:45:42.534Z,69.20
2019-05-06T09:49:03.309Z,67.10
2019-05-06T09:51:35.207Z,70.80
2019-05-06T09:54:13.901Z,68.60
2019-05-06T09:57:04.431Z,69.20
2019-05-06T09:59:42.197Z,68.30
2019-05-06T10:02:34.915Z,67.40
2019-05-06T10:05:19.322Z,66.30
2019-05-06T10:07:56.333Z,67.10
2019-05-06T10:10:56.773Z,70.30
2019-05-06T10:13:27.830Z,68.80
2019-05-06T10:16:05.355Z,69.60
2019-05-06T10:18:48.169Z,66.80
2019-05-06T10:21:29.180Z,67.50
2019-05-06T10:24:16.163Z,68.20
2019-05-06T10:27:02.567Z,67.20
2019-05-06T10:30:04.055Z,66.70
2019-05-06T10:32:54.614Z,68.00
2019-05-06T10:35:35.280Z,67.20
2019-05-06T10:38:35.220Z,70.90
2019-05-06T10:41:27.147Z,69.60
2019-05-06T10:44:34.116Z,68.80
2019-05-06T10:47:05.683Z,69.20
2019-05-06T10:49:41.916Z,68.70
2019-05-06T10:52:42.172Z,66.90
2019-05-06T10:55:14.463Z,68.30
2019-05-06T10:57:53.157Z,66.40
2019-05-06T11:00:25.327Z,67.90
2019-05-06T11:03:28.520Z,69.20
2019-05-06T11:06:08.879Z,69.50
2019-05-06T11:08:59.188Z,66.00
2019-05-06T11:11:38.972Z,66.10
2019-05-06T11:14:15.084Z,67.30
2019-05-06T11:16:54.002Z,68.20
2019-05-06T11:19:38.363Z,65.40
2019-05-06T11:22:12.723Z,65.50
2019-05-06T11:25:06.995Z,65.80
2019-05-06T11:27:37.510Z,67.40
2019-05-06T11:30:36.795Z,74.80
2019-05-06T11:33:53.673Z,78.00
2019-05-06T11:36:33.689Z,78.50
2019-05-06T11:39:32.221Z,77.20
2019-05-06T11:42:24.995Z,78.50
2019-05-06T11:44:59.558Z,78.00
2019-05-06T11:47:35.279Z,74.60
2019-05-06T11:50:15.325Z,72.40
2019-05-06T11:52:55.695Z,76.90
2019-05-06T11:55:37.830Z,73.90
2019-05-06T11:58:47.031Z,74.50
2019-05-06T12:01:40.303Z,73.10
2019-05-06T12:04:28.332Z,73.20
2019-05-06T12:07:11.462Z,72.00
2019-05-06T12:09:54.756Z,71.20
2019-05-06T12:13:06.820Z,70.10
2019-05-06T12:16:07.444Z,71.00
2019-05-06T12:18:52.900Z,74.20
2019-05-06T12:21:43.541Z,71.30
2019-05-06T12:24:19.258Z,69.70
2019-05-06T12:26:56.344Z,70.60
2019-05-06T12:29:52.758Z,70.00
2019-05-06T12:32:33.287Z,72.30
2019-05-06T12:35:03.659Z,73.20
2019-05-06T12:37:44.139Z,72.00
2019-05-06T12:40:32.162Z,71.50
2019-05-06T12:43:22.804Z,77.70
2019-05-06T12:45:59.444Z,76.90
2019-05-06T12:48:39.706Z,77.10
2019-05-06T12:51:22.746Z,74.70
2019-05-06T12:54:03.316Z,75.30
2019-05-06T12:56:33.880Z,75.70
2019-05-06T12:59:05.535Z,74.40
2019-05-06T13:01:45.322Z,75.00
2019-05-06T13:04:15.267Z,74.60
2019-05-06T13:07:00.111Z,74.00
2019-05-06T13:09:42.519Z,75.90
2019-05-06T13:12:29.386Z,74.40
2019-05-06T13:15:24.690Z,74.90
2019-05-06T13:18:06.837Z,77.70
2019-05-06T13:20:49.567Z,78.60
2019-05-06T13:23:49.076Z,80.60
2019-05-06T13:26:22.255Z,79.60
2019-05-06T13:29:04.322Z,81.70
2019-05-06T13:31:52.798Z,80.10
2019-05-06T13:34:36.174Z,79.30
2019-05-06T13:37:16.164Z,83.00
2019-05-06T13:39:58.037Z,82.60
2019-05-06T13:42:37.422Z,81.90
2019-05-06T13:45:14.797Z,80.10
2019-05-06T13:48:18.617Z,82.00
2019-05-06T13:51:12.446Z,79.10
2019-05-06T13:53:52.865Z,79.20
2019-05-06T13:56:26.919Z,78.70
2019-05-06T13:59:16.780Z,78.50
2019-05-06T14:02:16.360Z,80.90
2019-05-06T14:05:02.995Z,79.30
2019-05-06T14:07:43.580Z,77.60
2019-05-06T14:10:27.207Z,80.30
2019-05-06T14:13:27.180Z,80.60
2019-05-06T14:16:03.768Z,77.70
2019-05-06T14:18:53.415Z,81.80
2019-05-06T14:21:42.931Z,80.60
2019-05-06T14:24:22.465Z,79.10
2019-05-06T14:27:17.214Z,82.40
2019-05-06T14:30:17.006Z,82.40
2019-05-06T14:33:03.389Z,84.10
2019-05-06T14:35:34.752Z,82.20
2019-05-06T14:41:27.266Z,81.60
2019-05-06T14:44:27.644Z,81.40
2019-05-06T14:47:24.146Z,84.00
2019-05-06T14:50:14.746Z,82.40
2019-05-06T14:53:02.682Z,80.90
2019-05-06T14:55:48.138Z,80.70
2019-05-06T14:58:32.535Z,79.30
2019-05-06T15:01:17.266Z,79.20
2019-05-06T15:04:18.147Z,80.90
2019-05-06T15:07:05.470Z,79.40
2019-05-06T15:09:35.343Z,78.80
2019-05-06T15:12:16.679Z,76.90
2019-05-06T15:14:46.567Z,79.20
2019-05-06T15:17:16.485Z,78.30
2019-05-06T15:19:46.105Z,75.80
2019-05-06T15:22:16.227Z,80.20
2019-05-06T15:25:02.413Z,78.60
2019-05-06T15:27:33.548Z,75.90
2019-05-06T15:30:06.006Z,78.90
2019-05-06T15:32:37.913Z,79.20
2019-05-06T15:35:43.452Z,79.60
2019-05-06T15:38:22.243Z,79.60
2019-05-06T15:40:54.442Z,79.40
2019-05-06T15:43:24.247Z,79.50
2019-05-06T15:45:58.590Z,79.20
2019-05-06T15:48:28.931Z,81.10
2019-05-06T15:50:58.673Z,78.00
2019-05-06T15:53:32.845Z,77.70
2019-05-06T15:56:03.029Z,77.50
2019-05-06T15:58:32.937Z,78.80
2019-05-06T16:01:03.432Z,79.00
2019-05-06T16:03:33.802Z,77.20
2019-05-06T16:06:08.124Z,77.90
2019-05-06T16:08:38.642Z,77.50
2019-05-06T16:11:08.959Z,77.90
2019-05-06T16:14:02.931Z,77.50
2019-05-06T16:16:33.859Z,78.80
2019-05-06T16:19:05.714Z,77.00
2019-05-06T16:21:35.723Z,78.20
2019-05-06T16:24:13.981Z,76.20
2019-05-06T16:26:49.510Z,76.60
2019-05-06T16:29:23.251Z,76.40
2019-05-06T16:32:28.116Z,76.10
2019-05-06T16:34:58.251Z,78.50
2019-05-06T16:37:32.866Z,78.90
2019-05-06T16:40:02.926Z,77.10
2019-05-06T16:42:32.750Z,76.60
2019-05-06T16:45:06.982Z,78.90
2019-05-06T16:47:38.225Z,78.00
2019-05-06T16:50:10.260Z,77.70
2019-05-06T16:52:44.834Z,79.50
2019-05-06T16:55:16.361Z,77.90
2019-05-06T16:57:52.455Z,78.20
2019-05-06T17:00:32.280Z,78.40
2019-05-06T17:03:11.684Z,77.20
2019-05-06T17:06:28.800Z,77.40
2019-05-06T17:08:58.811Z,77.90
2019-05-06T17:11:35.367Z,77.30
2019-05-06T17:14:05.635Z,78.50
2019-05-06T17:16:35.919Z,78.00
2019-05-06T17:19:06.566Z,77.90
2019-05-06T17:21:44.284Z,79.20
2019-05-06T17:24:13.945Z,80.80
2019-05-06T17:26:56.080Z,80.90
2019-05-06T17:29:45.585Z,79.70
2019-05-06T17:32:37.291Z,80.60
2019-05-06T17:35:09.351Z,84.70
2019-05-06T17:38:04.179Z,82.30
2019-05-06T17:40:42.891Z,80.60
2019-05-06T17:43:13.174Z,81.80
2019-05-06T17:45:59.357Z,81.40
2019-05-06T17:48:48.794Z,80.90
2019-05-06T17:51:24.646Z,81.80
2019-05-06T17:53:54.843Z,81.10
2019-05-06T17:56:24.625Z,80.50
2019-05-06T17:58:56.618Z,80.90
2019-05-06T18:01:33.963Z,80.40
2019-05-06T18:06:43.517Z,80.90
2019-05-06T18:09:28.975Z,80.60
2019-05-06T18:11:59.565Z,81.00
2019-05-06T18:14:29.524Z,81.30
2019-05-06T18:16:59.575Z,80.50
2019-05-06T18:19:33.570Z,80.80
2019-05-06T18:22:05.808Z,79.90
2019-05-06T18:24:36.586Z,80.80
2019-05-06T18:27:06.383Z,80.60
2019-05-06T18:29:36.709Z,80.80
2019-05-06T18:32:06.719Z,80.80
2019-05-06T18:34:36.657Z,80.20
2019-05-06T18:37:06.387Z,80.30
2019-05-06T18:39:38.552Z,80.50
2019-05-06T18:42:16.944Z,80.80
2019-05-06T18:44:57.867Z,80.70
2019-05-06T18:47:28.015Z,82.10
2019-05-06T18:49:57.918Z,80.90
2019-05-06T18:52:27.671Z,81.20
2019-05-06T18:54:57.683Z,81.10
2019-05-06T18:57:43.136Z,81.10
2019-05-06T19:00:13.481Z,82.30
2019-05-06T19:02:43.467Z,81.50
2019-05-06T19:05:34.487Z,82.30
2019-05-06T19:08:06.595Z,82.10
2019-05-06T19:10:37.050Z,81.40
2019-05-06T19:13:08.683Z,81.00
2019-05-06T19:15:40.333Z,81.60
2019-05-06T19:18:10.400Z,81.30
2019-05-06T19:20:42.423Z,81.60
2019-05-06T19:23:13.030Z,81.20
2019-05-06T19:25:43.025Z,81.40
2019-05-06T19:28:14.372Z,81.40
2019-05-06T19:30:48.182Z,82.10
2019-05-06T19:33:17.889Z,83.40
2019-05-06T19:35:48.598Z,82.20
2019-05-06T19:38:21.335Z,82.30
2019-05-06T19:40:52.139Z,82.20
2019-05-06T19:43:29.115Z,82.40
2019-05-06T19:46:02.567Z,83.40
2019-05-06T19:48:32.919Z,83.40
2019-05-06T19:51:03.188Z,83.00
2019-05-06T19:53:34.618Z,82.90
2019-05-06T19:56:05.043Z,82.50
2019-05-06T19:58:35.120Z,83.60
2019-05-06T20:01:05.850Z,83.10
2019-05-06T20:03:39.039Z,82.80
2019-05-06T20:06:34.204Z,82.70
2019-05-06T20:09:22.621Z,83.00
2019-05-06T20:11:55.166Z,83.30
2019-05-06T20:14:25.021Z,87.60
2019-05-06T20:16:55.682Z,84.60
2019-05-06T20:19:30.846Z,83.90
2019-05-06T20:21:57.749Z,84.50
2019-05-06T20:24:27.951Z,83.30
2019-05-06T20:27:07.111Z,83.70
2019-05-06T20:29:42.990Z,83.30
2019-05-06T20:32:12.012Z,83.80
2019-05-06T20:34:42.821Z,84.90
2019-05-06T20:37:13.133Z,84.00
2019-05-06T20:39:43.546Z,83.80
2019-05-06T20:42:13.531Z,83.50
2019-05-06T20:44:43.891Z,83.70
2019-05-06T20:47:13.744Z,84.90
2019-05-06T20:49:49.562Z,84.20
2019-05-06T20:52:20.463Z,84.10
2019-05-06T20:54:50.928Z,85.20
2019-05-06T20:57:22.958Z,84.40
2019-05-06T20:59:53.106Z,86.90
2019-05-06T21:02:25.635Z,86.40
2019-05-06T21:04:54.559Z,87.90
2019-05-06T21:07:24.575Z,89.00
2019-05-06T21:10:06.546Z,88.80
2019-05-06T21:12:36.702Z,86.70
2019-05-06T21:15:07.271Z,86.30
2019-05-06T21:17:37.548Z,85.00
2019-05-06T21:20:07.913Z,84.10
2019-05-06T21:22:38.338Z,85.30
2019-05-06T21:25:08.839Z,86.40
2019-05-06T21:27:38.528Z,85.50
2019-05-06T21:30:09.945Z,85.00
2019-05-06T21:32:42.581Z,84.40
2019-05-06T21:35:14.994Z,84.60
2019-05-06T21:37:45.394Z,87.20
2019-05-06T21:40:15.669Z,87.30
2019-05-06T21:42:58.219Z,85.70
2019-05-06T21:45:28.831Z,86.10
2019-05-06T21:47:59.031Z,87.20
2019-05-06T21:50:32.861Z,85.20
2019-05-06T21:53:03.466Z,84.80
2019-05-06T21:55:33.005Z,85.10
2019-05-06T21:58:03.053Z,85.60
2019-05-06T22:00:43.676Z,84.80
2019-05-06T22:03:14.073Z,84.40
2019-05-06T22:05:44.261Z,84.90
2019-05-06T22:08:14.052Z,87.50
2019-05-06T22:10:45.875Z,88.10
2019-05-06T22:13:15.512Z,86.00
2019-05-06T22:15:47.914Z,85.00
2019-05-06T22:18:18.817Z,84.70
2019-05-06T22:21:07.786Z,84.50
2019-05-06T22:24:06.508Z,84.50
2019-05-06T22:26:37.618Z,84.60
2019-05-06T22:29:07.405Z,84.70
2019-05-06T22:31:38.102Z,84.70
2019-05-06T22:34:13.419Z,84.60
2019-05-06T22:36:43.283Z,85.00
2019-05-06T22:39:15.318Z,87.00
2019-05-06T22:41:45.622Z,85.90
2019-05-06T22:44:17.089Z,84.90
2019-05-06T22:46:47.015Z,85.70
2019-05-06T22:49:17.201Z,85.30
2019-05-06T22:51:47.790Z,85.10
2019-05-06T22:54:18.262Z,85.00
2019-05-06T22:56:49.499Z,84.80
2019-05-06T22:59:24.462Z,85.00
2019-05-06T23:02:14.725Z,84.70
2019-05-06T23:04:47.201Z,85.00
2019-05-06T23:07:18.006Z,85.20
2019-05-06T23:09:48.259Z,85.10
2019-05-06T23:12:18.933Z,85.30
2019-05-06T23:14:48.913Z,85.30
2019-05-06T23:17:18.665Z,85.20
2019-05-06T23:19:48.675Z,85.90
2019-05-06T23:22:18.668Z,85.80
2019-05-06T23:24:48.992Z,85.30
2019-05-06T23:27:29.395Z,85.50
2019-05-06T23:29:59.541Z,86.10
2019-05-06T23:32:57.370Z,86.60
2019-05-06T23:35:26.897Z,86.10
2019-05-06T23:38:33.954Z,85.90
2019-05-06T23:41:39.508Z,86.50
2019-05-06T23:44:54.557Z,88.30
2019-05-06T23:47:59.574Z,87.10
2019-05-06T23:51:05.484Z,85.90
2019-05-06T23:54:12.614Z,87.00
2019-05-06T23:56:43.291Z,85.80
2019-05-06T23:59:14.377Z,86.30
